createdAt,value
2018-05-15T00:02:19.322Z,15.13
2018-05-15T00:04:47.702Z,14.33
2018-05-15T00:07:16.035Z,13.73
2018-05-15T00:09:44.809Z,13.17
2018-05-15T00:12:13.163Z,14.73
2018-05-15T00:14:41.527Z,14.30
2018-05-15T00:17:10.603Z,14.00
2018-05-15T00:19:38.954Z,15.03
2018-05-15T00:22:07.425Z,13.70
2018-05-15T00:24:35.802Z,16.47
2018-05-15T00:27:04.160Z,15.87
2018-05-15T00:29:32.573Z,15.97
2018-05-15T00:32:01.421Z,15.30
2018-05-15T00:34:29.912Z,15.77
2018-05-15T00:36:58.241Z,16.10
2018-05-15T00:39:26.896Z,15.70
2018-05-15T00:41:55.242Z,15.13
2018-05-15T00:44:24.708Z,14.40
2018-05-15T00:46:53.167Z,14.70
2018-05-15T00:49:21.507Z,14.80
2018-05-15T00:51:50.845Z,15.50
2018-05-15T00:54:19.600Z,13.10
2018-05-15T00:56:47.912Z,16.27
2018-05-15T00:59:16.284Z,15.40
2018-05-15T01:01:44.630Z,14.90
2018-05-15T01:04:13.041Z,15.87
2018-05-15T01:06:41.537Z,16.60
2018-05-15T01:09:10.104Z,18.87
2018-05-15T01:11:38.463Z,20.63
2018-05-15T01:14:06.853Z,18.90
2018-05-15T01:16:35.234Z,17.60
2018-05-15T01:19:03.941Z,20.03
2018-05-15T01:21:32.631Z,20.20
2018-05-15T01:24:01.083Z,20.10
2018-05-15T01:26:29.456Z,18.80
2018-05-15T01:28:57.895Z,22.20
2018-05-15T01:31:26.554Z,21.97
2018-05-15T01:33:54.895Z,19.40
2018-05-15T01:36:23.224Z,23.23
2018-05-15T01:38:51.956Z,21.37
2018-05-15T01:41:20.302Z,19.33
2018-05-15T01:43:48.646Z,19.73
2018-05-15T01:46:17.249Z,19.33
2018-05-15T01:48:45.611Z,18.23
2018-05-15T01:51:13.955Z,19.57
2018-05-15T01:53:42.364Z,18.63
2018-05-15T01:56:10.723Z,18.10
2018-05-15T01:58:39.052Z,16.60
2018-05-15T02:01:07.702Z,16.80
2018-05-15T02:03:36.098Z,16.10
2018-05-15T02:06:04.491Z,16.33
2018-05-15T02:08:32.851Z,16.77
2018-05-15T02:11:01.495Z,16.10
2018-05-15T02:13:29.898Z,17.17
2018-05-15T02:15:58.685Z,17.50
2018-05-15T02:18:27.005Z,16.63
2018-05-15T02:20:55.389Z,17.83
2018-05-15T02:23:24.210Z,17.97
2018-05-15T02:25:52.515Z,18.07
2018-05-15T02:28:20.820Z,18.47
2018-05-15T02:30:49.482Z,21.40
2018-05-15T02:33:17.793Z,19.70
2018-05-15T02:35:46.123Z,20.87
2018-05-15T02:38:14.486Z,19.77
2018-05-15T02:40:42.861Z,22.00
2018-05-15T02:43:11.199Z,22.37
2018-05-15T02:45:39.599Z,22.53
2018-05-15T02:48:07.932Z,22.50
2018-05-15T02:50:36.313Z,22.70
2018-05-15T02:53:04.772Z,20.80
2018-05-15T02:55:33.108Z,21.53
2018-05-15T02:58:01.666Z,18.80
2018-05-15T03:00:30.043Z,19.80
2018-05-15T03:02:58.596Z,21.60
2018-05-15T03:05:26.902Z,20.40
2018-05-15T03:07:55.266Z,19.80
2018-05-15T03:10:24.176Z,21.00
2018-05-15T03:12:52.521Z,21.50
2018-05-15T03:15:20.893Z,18.67
2018-05-15T03:17:49.225Z,19.63
2018-05-15T03:20:17.555Z,21.77
2018-05-15T03:22:46.216Z,18.60
2018-05-15T03:25:14.567Z,19.30
2018-05-15T03:27:42.901Z,18.43
2018-05-15T03:30:11.522Z,18.90
2018-05-15T03:32:40.070Z,20.20
2018-05-15T03:35:08.403Z,17.93
2018-05-15T03:37:36.960Z,16.33
2018-05-15T03:40:05.451Z,16.87
2018-05-15T03:42:33.892Z,15.70
2018-05-15T03:45:02.585Z,15.50
2018-05-15T03:47:30.957Z,16.37
2018-05-15T03:49:59.284Z,14.57
2018-05-15T03:52:27.655Z,16.13
2018-05-15T03:54:56.067Z,14.20
2018-05-15T03:57:24.392Z,15.30
2018-05-15T03:59:52.760Z,12.57
2018-05-15T04:02:33.034Z,12.60
2018-05-15T04:05:13.361Z,12.70
2018-05-15T04:10:46.878Z,13.90
2018-05-15T04:13:15.132Z,15.20
2018-05-15T04:15:43.491Z,14.83
2018-05-15T04:18:12.022Z,14.80
2018-05-15T04:20:40.387Z,14.23
2018-05-15T04:23:08.694Z,15.33
2018-05-15T04:25:38.086Z,14.10
2018-05-15T04:28:06.663Z,15.13
2018-05-15T04:30:35.012Z,15.20
2018-05-15T04:33:03.837Z,12.40
2018-05-15T04:35:32.247Z,14.83
2018-05-15T04:38:00.587Z,12.97
2018-05-15T04:40:28.949Z,13.57
2018-05-15T04:42:57.442Z,14.27
2018-05-15T04:45:25.814Z,15.03
2018-05-15T04:47:54.582Z,15.57
2018-05-15T04:50:23.025Z,16.60
2018-05-15T04:52:51.339Z,16.30
2018-05-15T04:55:19.690Z,16.53
2018-05-15T04:57:48.002Z,16.17
2018-05-15T05:00:16.307Z,18.20
2018-05-15T05:02:44.669Z,18.70
2018-05-15T05:05:12.995Z,16.10
2018-05-15T05:07:41.317Z,16.07
2018-05-15T05:10:09.670Z,16.80
2018-05-15T05:12:37.982Z,13.57
2018-05-15T05:15:06.361Z,16.77
2018-05-15T05:17:34.957Z,15.63
2018-05-15T05:20:03.409Z,16.90
2018-05-15T05:22:31.782Z,15.37
2018-05-15T05:25:00.210Z,13.10
2018-05-15T05:27:28.549Z,12.60
2018-05-15T05:29:57.041Z,13.10
2018-05-15T05:32:25.606Z,13.73
2018-05-15T05:34:53.967Z,13.67
2018-05-15T05:37:23.185Z,13.60
2018-05-15T05:39:51.708Z,13.43
2018-05-15T05:42:20.086Z,15.60
2018-05-15T05:44:48.403Z,10.90
2018-05-15T05:47:17.069Z,11.37
2018-05-15T05:49:45.387Z,11.73
2018-05-15T05:52:13.745Z,10.67
2018-05-15T05:54:42.454Z,13.50
2018-05-15T05:57:10.808Z,13.53
2018-05-15T05:59:39.151Z,11.70
2018-05-15T06:02:07.669Z,10.50
2018-05-15T06:04:39.713Z,12.40
2018-05-15T06:07:08.062Z,12.67
2018-05-15T06:09:36.489Z,11.73
2018-05-15T06:12:04.939Z,12.80
2018-05-15T06:14:33.293Z,13.27
2018-05-15T06:17:01.657Z,14.13
2018-05-15T06:19:30.034Z,12.70
2018-05-15T06:21:58.425Z,13.03
2018-05-15T06:24:26.765Z,12.07
2018-05-15T06:26:55.112Z,11.50
2018-05-15T06:29:23.445Z,12.43
2018-05-15T06:31:52.033Z,12.13
2018-05-15T06:34:20.354Z,11.73
2018-05-15T06:36:49.134Z,11.30
2018-05-15T06:39:17.599Z,10.83
2018-05-15T06:41:45.951Z,11.80
2018-05-15T06:44:14.510Z,10.87
2018-05-15T06:46:42.831Z,14.00
2018-05-15T06:49:11.168Z,11.33
2018-05-15T06:51:39.542Z,11.03
2018-05-15T06:54:07.865Z,10.93
2018-05-15T06:56:36.230Z,10.23
2018-05-15T06:59:04.768Z,11.77
2018-05-15T07:01:33.099Z,16.93
2018-05-15T07:04:01.472Z,10.70
2018-05-15T07:09:05.384Z,11.70
2018-05-15T07:11:33.909Z,10.60
2018-05-15T07:14:02.335Z,11.27
2018-05-15T07:16:30.621Z,11.40
2018-05-15T07:18:59.215Z,11.40
2018-05-15T07:21:27.555Z,11.20
2018-05-15T07:23:55.877Z,10.40
2018-05-15T07:26:24.441Z,10.33
2018-05-15T07:28:52.761Z,11.10
2018-05-15T07:31:21.100Z,9.03
2018-05-15T07:33:49.454Z,10.23
2018-05-15T07:36:17.820Z,9.40
2018-05-15T07:38:46.118Z,9.70
2018-05-15T07:41:14.704Z,10.20
2018-05-15T07:43:43.022Z,9.63
2018-05-15T07:46:11.381Z,11.50
2018-05-15T07:48:40.003Z,10.93
2018-05-15T07:51:08.451Z,11.07
2018-05-15T07:53:36.818Z,12.20
2018-05-15T07:56:05.349Z,12.37
2018-05-15T07:58:34.568Z,12.03
2018-05-15T08:01:02.918Z,12.30
2018-05-15T08:03:31.277Z,11.70
2018-05-15T08:05:59.640Z,9.90
2018-05-15T08:08:28.014Z,10.33
2018-05-15T08:10:56.534Z,9.70
2018-05-15T08:13:25.594Z,9.80
2018-05-15T08:15:53.927Z,9.67
2018-05-15T08:18:22.522Z,10.93
2018-05-15T08:20:50.857Z,11.37
2018-05-15T08:23:19.180Z,10.70
2018-05-15T08:25:47.809Z,9.60
2018-05-15T08:28:16.194Z,10.33
2018-05-15T08:30:44.575Z,9.70
2018-05-15T08:33:12.849Z,9.67
2018-05-15T08:35:41.271Z,8.90
2018-05-15T08:38:09.604Z,10.93
2018-05-15T08:40:38.168Z,9.87
2018-05-15T08:43:06.612Z,10.40
2018-05-15T08:45:34.977Z,10.00
2018-05-15T08:48:03.400Z,10.23
2018-05-15T08:50:31.805Z,10.13
2018-05-15T08:53:01.334Z,10.40
2018-05-15T08:55:29.702Z,10.50
2018-05-15T08:57:58.056Z,10.80
2018-05-15T09:00:26.409Z,11.07
2018-05-15T09:02:54.757Z,9.53
2018-05-15T09:05:23.091Z,11.67
2018-05-15T09:07:51.409Z,10.80
2018-05-15T09:10:19.970Z,11.57
2018-05-15T09:12:48.317Z,11.07
2018-05-15T09:15:16.639Z,11.30
2018-05-15T09:17:44.982Z,9.50
2018-05-15T09:20:13.347Z,10.90
2018-05-15T09:22:41.684Z,9.67
2018-05-15T09:25:10.022Z,9.87
2018-05-15T09:27:38.345Z,9.57
2018-05-15T09:30:06.671Z,10.80
2018-05-15T09:32:35.050Z,8.87
2018-05-15T09:35:03.346Z,9.33
2018-05-15T09:37:31.719Z,9.90
2018-05-15T09:40:00.154Z,9.13
2018-05-15T09:42:28.488Z,10.67
2018-05-15T09:44:56.894Z,11.30
2018-05-15T09:47:25.643Z,10.00
2018-05-15T09:49:54.015Z,9.40
2018-05-15T09:52:22.355Z,9.80
2018-05-15T09:54:50.669Z,8.33
2018-05-15T09:57:18.989Z,10.43
2018-05-15T09:59:47.305Z,10.70
2018-05-15T10:02:15.677Z,10.90
2018-05-15T10:04:44.033Z,9.33
2018-05-15T10:07:12.399Z,9.53
2018-05-15T10:09:40.746Z,10.80
2018-05-15T10:12:09.179Z,9.77
2018-05-15T10:14:37.555Z,11.47
2018-05-15T10:17:06.185Z,9.83
2018-05-15T10:19:34.545Z,9.57
2018-05-15T10:22:02.900Z,11.17
2018-05-15T10:24:31.265Z,9.83
2018-05-15T10:26:59.805Z,11.70
2018-05-15T10:29:28.179Z,10.43
2018-05-15T10:31:56.545Z,12.50
2018-05-15T10:34:24.845Z,11.50
2018-05-15T10:36:53.185Z,10.03
2018-05-15T10:39:21.905Z,9.50
2018-05-15T10:41:50.263Z,9.37
2018-05-15T10:44:18.564Z,9.23
2018-05-15T10:46:46.916Z,11.17
2018-05-15T10:49:16.150Z,10.70
2018-05-15T10:51:44.494Z,9.57
2018-05-15T10:54:12.894Z,9.80
2018-05-15T10:56:41.169Z,9.50
2018-05-15T10:59:09.558Z,8.67
2018-05-15T11:01:37.940Z,8.60
2018-05-15T11:04:06.291Z,8.93
2018-05-15T11:06:34.642Z,7.63
2018-05-15T11:09:03.018Z,9.80
2018-05-15T11:11:31.456Z,8.90
2018-05-15T11:13:59.872Z,9.43
2018-05-15T11:16:28.440Z,10.83
2018-05-15T11:18:56.769Z,8.47
2018-05-15T11:21:36.950Z,8.37
2018-05-15T11:27:10.171Z,9.77
2018-05-15T11:29:38.586Z,9.20
2018-05-15T11:32:06.949Z,9.60
2018-05-15T11:34:35.451Z,8.60
2018-05-15T11:37:03.781Z,8.37
2018-05-15T11:39:32.187Z,9.47
2018-05-15T11:42:00.740Z,9.90
2018-05-15T11:44:29.117Z,9.60
2018-05-15T11:46:57.434Z,8.77
2018-05-15T11:49:26.704Z,9.47
2018-05-15T11:51:55.183Z,9.33
2018-05-15T11:54:22.468Z,8.63
2018-05-15T11:56:50.852Z,8.07
2018-05-15T11:59:19.161Z,7.20
2018-05-15T12:01:47.464Z,9.20
2018-05-15T12:04:16.436Z,7.87
2018-05-15T12:06:44.732Z,7.20
2018-05-15T12:09:13.099Z,7.80
2018-05-15T12:11:41.480Z,9.00
2018-05-15T12:14:09.835Z,7.97
2018-05-15T12:16:38.158Z,7.63
2018-05-15T12:19:06.810Z,9.80
2018-05-15T12:21:35.122Z,8.17
2018-05-15T12:24:03.494Z,9.13
2018-05-15T12:26:31.879Z,8.73
2018-05-15T12:29:00.225Z,9.93
2018-05-15T12:31:29.351Z,9.43
2018-05-15T12:33:57.706Z,7.87
2018-05-15T12:36:26.023Z,9.27
2018-05-15T12:38:54.365Z,10.73
2018-05-15T12:41:22.832Z,10.80
2018-05-15T12:43:51.088Z,9.47
2018-05-15T12:46:19.396Z,9.37
2018-05-15T12:48:47.877Z,10.20
2018-05-15T12:51:16.110Z,9.60
2018-05-15T12:53:44.431Z,8.90
2018-05-15T12:56:12.976Z,9.30
2018-05-15T12:58:41.291Z,8.73
2018-05-15T13:01:09.676Z,9.30
2018-05-15T13:03:38.210Z,9.20
2018-05-15T13:06:06.553Z,9.20
2018-05-15T13:08:34.941Z,10.77
2018-05-15T13:11:03.709Z,9.13
2018-05-15T13:13:32.113Z,9.10
2018-05-15T13:16:00.548Z,8.87
2018-05-15T13:18:29.228Z,9.67
2018-05-15T13:20:57.519Z,8.87
2018-05-15T13:23:25.842Z,8.30
2018-05-15T13:25:55.821Z,7.67
2018-05-15T13:28:24.121Z,7.07
2018-05-15T13:30:52.471Z,7.00
2018-05-15T13:33:20.826Z,8.67
2018-05-15T13:35:49.149Z,8.77
2018-05-15T13:38:17.439Z,8.80
2018-05-15T13:40:45.786Z,8.47
2018-05-15T13:43:14.094Z,9.50
2018-05-15T13:45:42.439Z,8.80
2018-05-15T13:48:10.820Z,9.10
2018-05-15T13:50:39.231Z,9.70
2018-05-15T13:53:07.618Z,9.20
2018-05-15T13:55:36.009Z,8.33
2018-05-15T13:58:04.382Z,7.63
2018-05-15T14:00:32.798Z,7.00
2018-05-15T14:03:01.541Z,6.53
2018-05-15T14:05:29.887Z,8.30
2018-05-15T14:07:58.204Z,6.97
2018-05-15T14:10:26.795Z,6.93
2018-05-15T14:12:55.121Z,7.47
2018-05-15T14:15:23.435Z,7.43
2018-05-15T14:17:52.107Z,7.53
2018-05-15T14:20:20.418Z,6.50
2018-05-15T14:22:48.772Z,5.70
2018-05-15T14:25:17.148Z,5.90
2018-05-15T14:27:45.469Z,5.20
2018-05-15T14:30:13.811Z,6.13
2018-05-15T14:32:42.445Z,5.73
2018-05-15T14:35:10.878Z,6.10
2018-05-15T14:37:39.311Z,4.70
2018-05-15T14:40:07.741Z,6.20
2018-05-15T14:42:47.722Z,6.03
2018-05-15T14:45:16.268Z,5.47
2018-05-15T14:47:44.587Z,4.30
2018-05-15T14:50:12.909Z,5.70
2018-05-15T14:52:41.651Z,5.20
2018-05-15T14:55:10.049Z,6.30
2018-05-15T14:57:38.448Z,5.87
2018-05-15T15:00:06.842Z,6.00
2018-05-15T15:02:35.164Z,7.60
2018-05-15T15:05:03.508Z,5.87
2018-05-15T15:07:32.148Z,5.70
2018-05-15T15:10:00.528Z,5.03
2018-05-15T15:12:28.839Z,4.90
2018-05-15T15:14:57.516Z,5.50
2018-05-15T15:17:25.843Z,4.97
2018-05-15T15:19:54.143Z,5.23
2018-05-15T15:22:22.662Z,6.17
2018-05-15T15:24:50.987Z,5.00
2018-05-15T15:27:19.318Z,4.93
2018-05-15T15:29:47.690Z,6.40
2018-05-15T15:32:15.991Z,6.93
2018-05-15T15:34:44.328Z,5.07
2018-05-15T15:37:12.830Z,4.73
2018-05-15T15:39:41.216Z,5.77
2018-05-15T15:42:09.684Z,5.40
2018-05-15T15:44:38.015Z,5.07
2018-05-15T15:47:06.380Z,5.57
2018-05-15T15:49:34.697Z,4.83
2018-05-15T15:52:03.086Z,5.07
2018-05-15T15:54:31.576Z,6.87
2018-05-15T15:57:00.084Z,5.20
2018-05-15T15:59:28.703Z,5.60
2018-05-15T16:01:57.012Z,5.30
2018-05-15T16:04:25.327Z,5.50
2018-05-15T16:06:53.681Z,5.80
2018-05-15T16:09:22.005Z,5.50
2018-05-15T16:11:50.337Z,5.77
2018-05-15T16:14:18.899Z,6.10
2018-05-15T16:16:47.270Z,5.93
2018-05-15T16:19:15.764Z,5.27
2018-05-15T16:21:45.102Z,5.90
2018-05-15T16:24:13.572Z,5.80
2018-05-15T16:26:42.104Z,6.03
2018-05-15T16:29:10.729Z,5.80
2018-05-15T16:31:39.067Z,4.93
2018-05-15T16:34:07.569Z,6.10
2018-05-15T16:36:35.994Z,5.33
2018-05-15T16:39:04.865Z,5.67
2018-05-15T16:41:33.204Z,5.33
2018-05-15T16:44:01.818Z,4.77
2018-05-15T16:46:30.164Z,4.70
2018-05-15T16:48:58.538Z,5.70
2018-05-15T16:51:27.241Z,4.77
2018-05-15T16:53:55.559Z,5.33
2018-05-15T16:56:23.915Z,5.93
2018-05-15T16:58:52.563Z,5.90
2018-05-15T17:01:20.813Z,5.80
2018-05-15T17:03:49.192Z,5.17
2018-05-15T17:06:18.007Z,5.27
2018-05-15T17:08:46.418Z,5.80
2018-05-15T17:11:14.787Z,6.10
2018-05-15T17:13:43.189Z,5.77
2018-05-15T17:16:11.597Z,5.60
2018-05-15T17:18:42.306Z,6.20
2018-05-15T17:21:10.766Z,5.13
2018-05-15T17:23:39.146Z,5.87
2018-05-15T17:26:07.528Z,6.13
2018-05-15T17:28:36.281Z,4.80
2018-05-15T17:31:04.814Z,5.40
2018-05-15T17:33:33.341Z,5.27
2018-05-15T17:36:02.128Z,5.53
2018-05-15T17:38:30.605Z,5.13
2018-05-15T17:40:59.027Z,5.10
2018-05-15T17:43:27.812Z,5.47
2018-05-15T17:45:56.133Z,5.10
2018-05-15T17:48:24.454Z,5.57
2018-05-15T17:50:52.804Z,5.53
2018-05-15T17:53:21.103Z,5.40
2018-05-15T17:55:49.444Z,6.03
2018-05-15T17:58:17.783Z,5.30
2018-05-15T18:00:46.113Z,6.00
2018-05-15T18:03:14.499Z,5.77
2018-05-15T18:05:42.846Z,6.20
2018-05-15T18:08:11.150Z,6.77
2018-05-15T18:10:39.546Z,6.57
2018-05-15T18:13:08.158Z,6.30
2018-05-15T18:15:36.799Z,6.47
2018-05-15T18:18:05.282Z,6.77
2018-05-15T18:20:34.069Z,7.57
2018-05-15T18:23:02.405Z,6.60
2018-05-15T18:25:30.966Z,7.20
2018-05-15T18:27:59.977Z,5.70
2018-05-15T18:30:28.336Z,5.07
2018-05-15T18:32:56.781Z,6.17
2018-05-15T18:35:24.982Z,6.07
2018-05-15T18:37:53.362Z,7.37
2018-05-15T18:40:21.694Z,5.90
2018-05-15T18:42:50.065Z,6.70
2018-05-15T18:45:18.416Z,11.73
2018-05-15T18:47:46.748Z,6.40
2018-05-15T18:50:15.428Z,6.97
2018-05-15T18:52:43.908Z,6.90
2018-05-15T18:55:12.253Z,6.17
2018-05-15T18:57:40.723Z,5.77
2018-05-15T19:00:09.077Z,6.50
2018-05-15T19:02:37.616Z,6.17
2018-05-15T19:05:06.134Z,5.37
2018-05-15T19:07:34.613Z,7.10
2018-05-15T19:10:03.011Z,5.50
2018-05-15T19:12:31.474Z,6.73
2018-05-15T19:14:59.881Z,5.23
2018-05-15T19:17:28.561Z,5.63
2018-05-15T19:19:57.154Z,6.10
2018-05-15T19:22:25.525Z,6.83
2018-05-15T19:24:53.875Z,5.23
2018-05-15T19:27:22.432Z,5.70
2018-05-15T19:29:50.773Z,5.73
2018-05-15T19:32:19.090Z,6.87
2018-05-15T19:34:53.228Z,5.20
2018-05-15T19:37:21.638Z,5.83
2018-05-15T19:39:49.984Z,6.03
2018-05-15T19:42:18.340Z,6.07
2018-05-15T19:44:46.646Z,6.90
2018-05-15T19:47:14.945Z,6.30
2018-05-15T19:49:43.299Z,5.70
2018-05-15T19:52:11.619Z,4.70
2018-05-15T19:54:39.943Z,5.80
2018-05-15T19:57:08.327Z,5.53
2018-05-15T19:59:36.885Z,5.20
2018-05-15T20:02:05.218Z,4.90
2018-05-15T20:04:33.995Z,6.37
2018-05-15T20:07:02.432Z,4.50
2018-05-15T20:09:30.948Z,5.43
2018-05-15T20:11:59.532Z,4.33
2018-05-15T20:14:27.912Z,4.87
2018-05-15T20:16:56.285Z,4.87
2018-05-15T20:19:24.906Z,4.43
2018-05-15T20:21:53.233Z,4.43
2018-05-15T20:24:21.943Z,4.90
2018-05-15T20:26:50.324Z,4.90
2018-05-15T20:29:18.744Z,4.67
2018-05-15T20:31:47.685Z,5.20
2018-05-15T20:34:16.049Z,5.37
2018-05-15T20:36:44.421Z,5.13
2018-05-15T20:39:12.764Z,5.80
2018-05-15T20:41:41.181Z,5.57
2018-05-15T20:44:09.501Z,6.60
2018-05-15T20:46:38.262Z,6.57
2018-05-15T20:49:06.862Z,5.73
2018-05-15T20:51:35.386Z,5.37
2018-05-15T20:54:03.831Z,5.53
2018-05-15T20:56:32.790Z,5.47
2018-05-15T20:59:01.229Z,6.33
2018-05-15T21:01:30.546Z,5.23
2018-05-15T21:03:58.972Z,5.40
2018-05-15T21:06:27.404Z,6.20
2018-05-15T21:08:55.743Z,7.07
2018-05-15T21:11:24.129Z,6.67
2018-05-15T21:13:52.503Z,6.20
2018-05-15T21:16:20.882Z,6.03
2018-05-15T21:18:49.301Z,5.93
2018-05-15T21:21:17.716Z,6.03
2018-05-15T21:23:46.139Z,6.03
2018-05-15T21:26:14.985Z,7.17
2018-05-15T21:28:43.414Z,6.07
2018-05-15T21:31:11.741Z,7.53
2018-05-15T21:33:40.215Z,6.50
2018-05-15T21:36:08.594Z,7.00
2018-05-15T21:38:37.114Z,12.97
2018-05-15T21:41:05.465Z,7.00
2018-05-15T21:43:34.917Z,8.07
2018-05-15T21:46:03.370Z,6.90
2018-05-15T21:48:32.246Z,5.67
2018-05-15T21:51:00.669Z,5.93
2018-05-15T21:53:29.104Z,6.00
2018-05-15T21:55:57.499Z,7.23
2018-05-15T21:58:25.829Z,6.40
2018-05-15T22:00:54.226Z,7.20
2018-05-15T22:03:22.711Z,6.63
2018-05-15T22:05:51.027Z,5.67
2018-05-15T22:08:19.502Z,6.83
2018-05-15T22:10:48.190Z,6.40
2018-05-15T22:13:28.557Z,6.63
2018-05-15T22:16:08.999Z,7.40
2018-05-15T22:18:49.233Z,7.57
2018-05-15T22:21:29.412Z,6.73
2018-05-15T22:23:57.208Z,6.87
2018-05-15T22:26:25.532Z,6.90
2018-05-15T22:28:53.853Z,4.57
2018-05-15T22:31:22.326Z,6.10
2018-05-15T22:33:50.699Z,5.73
2018-05-15T22:36:19.043Z,7.20
2018-05-15T22:38:47.401Z,5.93
2018-05-15T22:41:15.733Z,6.83
2018-05-15T22:43:44.734Z,5.47
2018-05-15T22:46:13.381Z,5.90
2018-05-15T22:48:41.730Z,6.40
2018-05-15T22:51:10.464Z,6.60
2018-05-15T22:53:38.879Z,6.37
2018-05-15T22:56:07.281Z,6.70
2018-05-15T22:58:35.921Z,6.47
2018-05-15T23:01:04.262Z,6.67
2018-05-15T23:03:32.787Z,6.47
2018-05-15T23:06:01.200Z,7.00
2018-05-15T23:08:29.640Z,7.00
2018-05-15T23:10:57.963Z,7.17
2018-05-15T23:13:26.904Z,9.40
2018-05-15T23:15:55.201Z,7.43
2018-05-15T23:18:23.559Z,7.50
2018-05-15T23:20:52.743Z,7.00
2018-05-15T23:23:21.040Z,8.63
2018-05-15T23:25:49.401Z,8.57
2018-05-15T23:28:17.789Z,7.77
2018-05-15T23:30:46.122Z,7.67
2018-05-15T23:33:14.569Z,6.70
2018-05-15T23:35:44.570Z,8.53
2018-05-15T23:38:12.997Z,7.50
2018-05-15T23:40:41.324Z,6.60
2018-05-15T23:43:11.124Z,7.93
2018-05-15T23:45:39.499Z,9.30
2018-05-15T23:48:07.797Z,9.50
2018-05-15T23:50:36.794Z,8.43
2018-05-15T23:53:05.148Z,9.87
2018-05-15T23:55:33.573Z,10.40
2018-05-15T23:58:02.213Z,11.10
